Time;durP1;ratioP1;P1;durP2;ratioP2;P2;SDS_P1;SDS_P2;PMS_P1;PMS_P2;Temp;Humidity;BMP_temperature;BMP_pressure;BME280_temperature;BME280_humidity;BME280_pressure;Samples;Min_cycle;Max_cycle;Signal;HPM_P1;HPM_P2
2021/04/08 00:00:22;;;;;;;8.93;1.80;;;;;;;;;;4330983;33;20210;-71
2021/04/08 00:02:47;;;;;;;3.80;1.30;;;;;;;;;;4331620;33;20498;-71
2021/04/08 00:05:14;;;;;;;5.57;1.43;;;;;;;;;;4331504;33;20136;-71
2021/04/08 00:07:39;;;;;;;8.57;1.37;;;;;;;;;;4331094;33;20183;-71
2021/04/08 00:10:05;;;;;;;8.93;1.43;;;;;;;;;;4331150;33;20183;-71
2021/04/08 00:12:30;;;;;;;12.10;1.60;;;;;;;;;;4330692;33;20256;-71
2021/04/08 00:14:56;;;;;;;14.43;2.60;;;;;;;;;;4316615;33;20136;-71
2021/04/08 00:17:29;;;;;;;4.60;1.20;;;;;;;;;;4328651;33;20230;-71
2021/04/08 00:19:54;;;;;;;5.33;1.30;;;;;;;;;;4331774;33;20573;-71
2021/04/08 00:22:19;;;;;;;5.40;1.00;;;;;;;;;;4331337;33;20144;-71
2021/04/08 00:24:44;;;;;;;10.93;1.47;;;;;;;;;;4331400;33;20128;-71
2021/04/08 00:27:10;;;;;;;9.83;1.50;;;;;;;;;;4329392;33;20467;-71
2021/04/08 00:29:35;;;;;;;6.43;1.03;;;;;;;;;;4330686;33;20124;-71
2021/04/08 00:32:00;;;;;;;7.97;1.03;;;;;;;;;;4330930;33;20159;-71
2021/04/08 00:34:25;;;;;;;6.17;1.30;;;;;;;;;;4330942;33;20267;-71
2021/04/08 00:36:51;;;;;;;6.47;1.00;;;;;;;;;;4330964;33;20485;-71
2021/04/08 00:39:16;;;;;;;7.63;1.23;;;;;;;;;;4330575;33;20128;-71
2021/04/08 00:41:42;;;;;;;8.00;1.30;;;;;;;;;;4330747;33;20132;-71
2021/04/08 00:44:07;;;;;;;7.73;1.50;;;;;;;;;;4331242;33;20135;-71
2021/04/08 00:46:32;;;;;;;5.07;1.10;;;;;;;;;;4330763;33;20248;-71
2021/04/08 00:48:58;;;;;;;6.37;1.17;;;;;;;;;;4330542;33;20213;-71
2021/04/08 00:51:23;;;;;;;6.17;1.20;;;;;;;;;;4328896;33;20144;-72
2021/04/08 00:53:48;;;;;;;5.33;1.10;;;;;;;;;;4330413;33;20217;-72
2021/04/08 00:56:14;;;;;;;4.43;1.20;;;;;;;;;;4329243;33;20178;-71
2021/04/08 00:58:40;;;;;;;5.93;1.20;;;;;;;;;;4329919;33;20517;-72
2021/04/08 01:01:05;;;;;;;5.43;1.30;;;;;;;;;;4330548;33;20135;-71
2021/04/08 01:03:31;;;;;;;2.87;1.10;;;;;;;;;;4330860;33;20132;-71
2021/04/08 01:05:56;;;;;;;4.90;1.00;;;;;;;;;;4329308;33;20667;-71
2021/04/08 01:08:22;;;;;;;6.83;1.20;;;;;;;;;;4329280;33;20223;-71
2021/04/08 01:10:47;;;;;;;7.20;1.20;;;;;;;;;;4330990;33;20154;-71
2021/04/08 01:13:15;;;;;;;4.57;1.10;;;;;;;;;;4330624;33;20136;-70
2021/04/08 01:15:41;;;;;;;3.90;1.40;;;;;;;;;;4322840;33;20155;-71
2021/04/08 01:18:21;;;;;;;6.03;1.20;;;;;;;;;;4315064;33;20164;-71
2021/04/08 01:21:09;;;;;;;5.67;1.20;;;;;;;;;;4316655;33;20203;-71
2021/04/08 01:23:40;;;;;;;6.93;0.90;;;;;;;;;;4316213;33;20202;-71
2021/04/08 01:26:28;;;;;;;2.93;0.90;;;;;;;;;;4316337;33;20132;-71
2021/04/08 01:29:13;;;;;;;3.73;1.10;;;;;;;;;;4323642;33;20152;-71
2021/04/08 01:31:39;;;;;;;3.30;1.30;;;;;;;;;;4330359;33;20222;-71
2021/04/08 01:34:06;;;;;;;4.77;1.20;;;;;;;;;;4330336;33;20478;-71
2021/04/08 01:36:34;;;;;;;8.13;1.53;;;;;;;;;;4330003;33;20632;-70
2021/04/08 01:39:02;;;;;;;7.17;1.30;;;;;;;;;;4329904;33;20186;-71
2021/04/08 01:41:27;;;;;;;4.43;1.23;;;;;;;;;;4330004;33;20214;-70
2021/04/08 01:43:55;;;;;;;5.33;1.50;;;;;;;;;;4330081;33;20139;-71
2021/04/08 01:46:21;;;;;;;7.50;1.40;;;;;;;;;;4330224;33;20237;-71
2021/04/08 01:48:48;;;;;;;5.70;1.17;;;;;;;;;;4329943;33;20592;-71
2021/04/08 01:51:14;;;;;;;7.80;1.43;;;;;;;;;;4330832;33;20132;-71
2021/04/08 01:53:49;;;;;;;5.97;1.47;;;;;;;;;;4329731;33;20182;-71
2021/04/08 01:56:19;;;;;;;4.47;1.03;;;;;;;;;;4330803;33;20181;-72
2021/04/08 01:58:45;;;;;;;7.97;1.10;;;;;;;;;;4330208;33;20144;-72
2021/04/08 02:01:10;;;;;;;4.23;1.13;;;;;;;;;;4330071;33;20166;-72
2021/04/08 02:03:36;;;;;;;4.00;1.10;;;;;;;;;;4329966;33;20212;-71
2021/04/08 02:06:02;;;;;;;6.40;1.13;;;;;;;;;;4330296;33;20187;-72
2021/04/08 02:08:29;;;;;;;5.20;1.00;;;;;;;;;;4329823;33;20154;-72
2021/04/08 02:10:55;;;;;;;3.50;1.07;;;;;;;;;;4330022;33;20199;-72
2021/04/08 02:13:21;;;;;;;4.03;1.03;;;;;;;;;;4333774;33;20162;-72
2021/04/08 02:15:47;;;;;;;3.13;1.03;;;;;;;;;;4331741;33;20155;-72
2021/04/08 02:18:14;;;;;;;4.57;1.10;;;;;;;;;;4333458;33;20207;-71
2021/04/08 02:20:40;;;;;;;11.17;1.57;;;;;;;;;;4332900;33;20263;-72
2021/04/08 02:23:06;;;;;;;4.37;1.57;;;;;;;;;;4332616;33;20136;-71
2021/04/08 02:25:33;;;;;;;4.60;1.33;;;;;;;;;;4332435;33;20522;-72
2021/04/08 02:28:00;;;;;;;7.17;1.30;;;;;;;;;;4333178;33;20206;-72
2021/04/08 02:30:26;;;;;;;2.80;1.03;;;;;;;;;;4332909;33;20155;-72
2021/04/08 02:32:52;;;;;;;5.97;1.70;;;;;;;;;;4331506;33;20570;-71
2021/04/08 02:35:18;;;;;;;7.53;1.40;;;;;;;;;;4332819;33;20159;-71
2021/04/08 02:37:44;;;;;;;5.10;1.17;;;;;;;;;;4332716;33;20199;-72
2021/04/08 02:40:11;;;;;;;3.90;1.00;;;;;;;;;;4332749;33;20565;-71
2021/04/08 02:42:36;;;;;;;8.97;1.30;;;;;;;;;;4332268;33;20215;-71
2021/04/08 02:45:02;;;;;;;6.87;1.23;;;;;;;;;;4332234;33;20128;-71
2021/04/08 02:47:27;;;;;;;7.93;1.37;;;;;;;;;;4332670;33;20164;-71
2021/04/08 02:49:53;;;;;;;7.20;1.60;;;;;;;;;;4332353;33;20128;-71
2021/04/08 02:52:20;;;;;;;7.00;1.30;;;;;;;;;;4332215;33;20581;-71
2021/04/08 02:54:49;;;;;;;3.40;1.33;;;;;;;;;;4332699;33;20136;-71
2021/04/08 02:57:20;;;;;;;5.07;1.30;;;;;;;;;;4330794;33;20164;-71
2021/04/08 02:59:51;;;;;;;4.40;1.40;;;;;;;;;;4331210;33;20197;-71
2021/04/08 03:02:20;;;;;;;6.87;1.57;;;;;;;;;;4333078;33;20170;-70
2021/04/08 03:04:47;;;;;;;7.87;1.50;;;;;;;;;;4332298;33;20158;-71
2021/04/08 03:07:14;;;;;;;6.37;1.80;;;;;;;;;;4330662;33;20641;-70
2021/04/08 03:09:40;;;;;;;11.43;2.10;;;;;;;;;;4331755;33;20241;-70
2021/04/08 03:12:06;;;;;;;9.57;1.63;;;;;;;;;;4332341;33;20167;-70
2021/04/08 03:14:33;;;;;;;2.97;1.50;;;;;;;;;;4332414;33;20165;-70
2021/04/08 03:16:59;;;;;;;4.93;1.50;;;;;;;;;;4332290;33;20433;-71
2021/04/08 03:19:25;;;;;;;8.53;1.37;;;;;;;;;;4331673;33;20194;-71
2021/04/08 03:21:51;;;;;;;6.27;1.77;;;;;;;;;;4331809;33;20163;-71
2021/04/08 03:24:17;;;;;;;4.47;1.40;;;;;;;;;;4331922;33;20154;-70
2021/04/08 03:26:43;;;;;;;4.93;1.80;;;;;;;;;;4332901;33;20140;-71
2021/04/08 03:29:08;;;;;;;7.03;1.67;;;;;;;;;;4331886;33;20194;-71
2021/04/08 03:31:34;;;;;;;3.60;1.80;;;;;;;;;;4331999;33;20158;-72
2021/04/08 03:34:00;;;;;;;8.97;2.30;;;;;;;;;;4330873;33;20518;-71
2021/04/08 03:36:26;;;;;;;4.27;1.50;;;;;;;;;;4323799;33;20187;-71
2021/04/08 03:38:51;;;;;;;4.97;1.60;;;;;;;;;;4331606;33;20159;-71
2021/04/08 03:41:18;;;;;;;3.97;1.30;;;;;;;;;;4331455;33;20166;-71
2021/04/08 03:43:43;;;;;;;8.77;1.53;;;;;;;;;;4331284;33;20222;-70
2021/04/08 03:46:09;;;;;;;3.40;1.23;;;;;;;;;;4331702;33;20171;-71
2021/04/08 03:48:35;;;;;;;6.00;1.50;;;;;;;;;;4331812;33;20136;-72
2021/04/08 03:51:01;;;;;;;4.57;1.60;;;;;;;;;;4331876;33;20140;-71
2021/04/08 03:53:27;;;;;;;4.70;1.50;;;;;;;;;;4331448;33;20155;-71
2021/04/08 03:55:53;;;;;;;3.40;1.20;;;;;;;;;;4331703;33;20135;-70
2021/04/08 03:58:18;;;;;;;5.67;1.93;;;;;;;;;;4331565;33;20167;-70
2021/04/08 04:00:44;;;;;;;7.80;1.97;;;;;;;;;;4331832;33;20140;-71
2021/04/08 04:03:10;;;;;;;11.70;2.87;;;;;;;;;;4331919;33;20128;-70
2021/04/08 04:05:39;;;;;;;4.73;1.50;;;;;;;;;;4332351;33;20140;-67
2021/04/08 04:08:05;;;;;;;6.87;1.57;;;;;;;;;;4331262;33;20620;-70
2021/04/08 04:10:33;;;;;;;3.63;1.30;;;;;;;;;;4330842;33;20135;-69
2021/04/08 04:12:59;;;;;;;3.53;1.53;;;;;;;;;;4331482;33;20603;-71
2021/04/08 04:15:24;;;;;;;3.83;1.40;;;;;;;;;;4331369;33;20132;-71
2021/04/08 04:17:51;;;;;;;3.20;1.47;;;;;;;;;;4331172;33;20144;-71
2021/04/08 04:20:16;;;;;;;4.37;1.60;;;;;;;;;;4330721;33;20565;-71
2021/04/08 04:22:42;;;;;;;4.13;1.40;;;;;;;;;;4331356;33;20206;-67
2021/04/08 04:25:09;;;;;;;3.93;1.30;;;;;;;;;;4329752;33;20581;-70
2021/04/08 04:27:34;;;;;;;4.37;1.40;;;;;;;;;;4330207;33;20183;-71
2021/04/08 04:29:59;;;;;;;4.40;1.50;;;;;;;;;;4331053;33;20159;-71
2021/04/08 04:32:24;;;;;;;5.13;1.60;;;;;;;;;;4331272;33;20195;-70
2021/04/08 04:34:49;;;;;;;3.03;1.13;;;;;;;;;;4330865;33;20618;-71
2021/04/08 04:37:15;;;;;;;4.20;1.47;;;;;;;;;;4330997;33;20160;-70
2021/04/08 04:39:40;;;;;;;3.57;1.47;;;;;;;;;;4321685;33;20159;-70
2021/04/08 04:42:06;;;;;;;2.93;1.50;;;;;;;;;;4330501;33;20309;-70
2021/04/08 04:44:31;;;;;;;6.17;2.07;;;;;;;;;;4331167;33;20459;-71
2021/04/08 04:46:57;;;;;;;6.80;1.90;;;;;;;;;;4330770;33;20140;-71
2021/04/08 04:49:22;;;;;;;5.83;2.10;;;;;;;;;;4331478;33;20132;-71
2021/04/08 04:51:48;;;;;;;4.50;1.80;;;;;;;;;;4330728;33;20162;-70
2021/04/08 04:54:13;;;;;;;6.97;1.77;;;;;;;;;;4330482;33;20526;-70
2021/04/08 04:56:38;;;;;;;6.00;1.50;;;;;;;;;;4330439;33;20167;-70
2021/04/08 04:59:03;;;;;;;5.53;1.77;;;;;;;;;;4330750;33;20478;-70
2021/04/08 05:01:28;;;;;;;5.72;2.00;;;;;;;;;;4330213;33;20479;-70
2021/04/08 05:03:57;;;;;;;4.20;1.93;;;;;;;;;;4331287;33;20140;-71
2021/04/08 05:06:23;;;;;;;4.83;1.77;;;;;;;;;;4331442;33;20190;-71
2021/04/08 05:08:48;;;;;;;3.87;1.70;;;;;;;;;;4330251;33;20167;-70
2021/04/08 05:11:13;;;;;;;4.03;1.53;;;;;;;;;;4330138;33;20139;-70
2021/04/08 05:13:38;;;;;;;4.83;1.70;;;;;;;;;;4329932;33;20699;-70
2021/04/08 05:16:04;;;;;;;3.53;1.30;;;;;;;;;;4330208;33;20203;-70
2021/04/08 05:18:29;;;;;;;4.83;1.83;;;;;;;;;;4329770;33;20139;-69
2021/04/08 05:20:56;;;;;;;4.63;1.70;;;;;;;;;;4329886;33;20140;-70
2021/04/08 05:23:22;;;;;;;4.57;1.63;;;;;;;;;;4316752;33;20152;-70
2021/04/08 05:25:47;;;;;;;5.10;1.80;;;;;;;;;;4330364;33;20139;-67
2021/04/08 05:28:12;;;;;;;6.62;1.73;;;;;;;;;;4314513;33;20578;-70
2021/04/08 05:30:48;;;;;;;3.97;1.80;;;;;;;;;;4316186;33;20159;-70
2021/04/08 05:33:13;;;;;;;5.43;1.90;;;;;;;;;;4315729;33;20269;-69
2021/04/08 05:35:38;;;;;;;6.87;2.23;;;;;;;;;;4326347;33;20195;-69
2021/04/08 05:38:04;;;;;;;6.57;2.30;;;;;;;;;;4340842;33;20508;-71
2021/04/08 05:40:29;;;;;;;7.40;2.33;;;;;;;;;;4330655;33;20147;-71
2021/04/08 05:42:55;;;;;;;3.60;2.00;;;;;;;;;;4327592;33;20176;-72
2021/04/08 05:45:21;;;;;;;4.67;1.80;;;;;;;;;;4315403;33;20144;-67
2021/04/08 05:47:46;;;;;;;3.90;2.00;;;;;;;;;;4317939;33;20163;-72
2021/04/08 05:50:15;;;;;;;5.23;2.20;;;;;;;;;;4317396;33;20535;-71
2021/04/08 05:52:41;;;;;;;4.20;2.10;;;;;;;;;;4333627;33;20194;-70
2021/04/08 05:55:06;;;;;;;5.53;2.50;;;;;;;;;;4346278;33;20143;-68
2021/04/08 05:57:32;;;;;;;6.43;2.40;;;;;;;;;;4346758;33;20219;-71
2021/04/08 05:59:57;;;;;;;4.77;2.90;;;;;;;;;;4336708;33;20198;-71
2021/04/08 06:02:25;;;;;;;5.40;2.23;;;;;;;;;;4332879;33;20144;-71
2021/04/08 06:04:51;;;;;;;8.40;2.23;;;;;;;;;;4332408;33;20297;-70
2021/04/08 06:07:16;;;;;;;3.67;2.20;;;;;;;;;;4332257;33;20219;-70
2021/04/08 06:09:41;;;;;;;5.00;2.60;;;;;;;;;;4332399;33;20545;-69
2021/04/08 06:12:06;;;;;;;5.87;2.50;;;;;;;;;;4332380;33;20141;-68
2021/04/08 06:14:33;;;;;;;4.73;2.13;;;;;;;;;;4331899;33;20258;-70
2021/04/08 06:16:58;;;;;;;5.67;2.23;;;;;;;;;;4331852;33;20194;-70
2021/04/08 06:19:23;;;;;;;6.37;2.50;;;;;;;;;;4321153;33;20593;-70
2021/04/08 06:21:48;;;;;;;4.03;2.23;;;;;;;;;;4332709;33;20160;-70
2021/04/08 06:24:14;;;;;;;5.60;2.83;;;;;;;;;;4332633;33;20137;-71
2021/04/08 06:26:39;;;;;;;5.13;2.40;;;;;;;;;;4332168;33;20137;-71
2021/04/08 06:29:04;;;;;;;6.90;2.70;;;;;;;;;;4332234;33;20132;-72
2021/04/08 06:31:29;;;;;;;5.90;2.77;;;;;;;;;;4332752;33;20205;-69
2021/04/08 06:33:54;;;;;;;5.50;2.33;;;;;;;;;;4332084;33;20166;-69
2021/04/08 06:36:20;;;;;;;5.93;2.30;;;;;;;;;;4332353;33;20152;-81
2021/04/08 06:38:46;;;;;;;7.80;2.70;;;;;;;;;;4332652;33;20124;-67
2021/04/08 06:41:11;;;;;;;3.80;2.40;;;;;;;;;;4331698;33;20570;-71
2021/04/08 06:43:38;;;;;;;7.43;2.67;;;;;;;;;;4331962;33;20163;-71
2021/04/08 06:46:03;;;;;;;4.40;2.60;;;;;;;;;;4332917;33;20184;-75
2021/04/08 06:48:31;;;;;;;7.40;2.60;;;;;;;;;;4332208;33;20628;-69
2021/04/08 06:50:56;;;;;;;7.83;2.70;;;;;;;;;;4332317;33;20550;-72
2021/04/08 06:53:21;;;;;;;4.50;2.30;;;;;;;;;;4328288;33;20175;-68
2021/04/08 06:55:47;;;;;;;4.93;2.33;;;;;;;;;;4331240;33;20170;-71
2021/04/08 06:58:14;;;;;;;3.90;2.27;;;;;;;;;;4329552;33;20274;-70
2021/04/08 07:00:39;;;;;;;4.73;2.17;;;;;;;;;;4331296;33;20639;-70
2021/04/08 07:03:05;;;;;;;6.40;2.80;;;;;;;;;;4329486;33;20140;-69
2021/04/08 07:05:30;;;;;;;7.10;3.10;;;;;;;;;;4331628;33;20164;-71
2021/04/08 07:07:55;;;;;;;6.10;2.70;;;;;;;;;;4329524;33;20185;-68
2021/04/08 07:10:20;;;;;;;6.73;2.67;;;;;;;;;;4332406;33;20570;-69
2021/04/08 07:12:46;;;;;;;7.83;2.80;;;;;;;;;;4331732;33;20182;-70
2021/04/08 07:15:11;;;;;;;5.77;2.73;;;;;;;;;;4331622;33;20148;-69
2021/04/08 07:17:37;;;;;;;4.87;2.40;;;;;;;;;;4331274;33;20477;-70
2021/04/08 07:20:02;;;;;;;6.33;2.50;;;;;;;;;;4331163;33;20148;-70
2021/04/08 07:22:28;;;;;;;4.20;2.30;;;;;;;;;;4325047;33;20512;-70
2021/04/08 07:24:53;;;;;;;4.93;2.80;;;;;;;;;;4327408;33;20175;-71
2021/04/08 07:27:23;;;;;;;8.43;2.80;;;;;;;;;;4331088;33;20189;-70
2021/04/08 07:29:54;;;;;;;7.53;3.10;;;;;;;;;;4331934;33;20894;-69
2021/04/08 07:32:38;;;;;;;8.93;3.10;;;;;;;;;;4330905;33;20198;-72
2021/04/08 07:35:11;;;;;;;4.40;2.70;;;;;;;;;;4330402;33;20159;-71
2021/04/08 07:37:36;;;;;;;7.10;3.07;;;;;;;;;;4328533;33;20501;-69
2021/04/08 07:40:12;;;;;;;7.13;3.10;;;;;;;;;;4328703;33;20210;-71
2021/04/08 07:42:37;;;;;;;7.67;3.43;;;;;;;;;;4320470;33;20180;-71
2021/04/08 07:45:04;;;;;;;7.73;2.83;;;;;;;;;;4325549;33;20151;-69
2021/04/08 07:47:34;;;;;;;11.97;3.50;;;;;;;;;;4326138;33;20237;-71
2021/04/08 07:50:05;;;;;;;7.73;3.13;;;;;;;;;;4325116;33;20755;-71
2021/04/08 07:52:38;;;;;;;6.10;3.10;;;;;;;;;;4331269;33;20179;-65
2021/04/08 07:55:06;;;;;;;10.03;3.40;;;;;;;;;;4330669;33;20602;-67
2021/04/08 07:57:32;;;;;;;9.23;3.77;;;;;;;;;;4328390;33;20147;-74
2021/04/08 08:00:15;;;;;;;9.53;3.73;;;;;;;;;;4330332;33;20274;-70
2021/04/08 08:02:40;;;;;;;10.67;3.83;;;;;;;;;;4326783;33;20152;-67
2021/04/08 08:05:21;;;;;;;11.10;3.90;;;;;;;;;;4330293;33;20139;-72
2021/04/08 08:07:47;;;;;;;6.50;3.67;;;;;;;;;;4331944;33;20483;-67
2021/04/08 08:10:23;;;;;;;10.07;3.33;;;;;;;;;;4328453;33;20190;-71
2021/04/08 08:12:49;;;;;;;6.50;3.20;;;;;;;;;;4330545;33;20182;-71
2021/04/08 08:15:15;;;;;;;6.43;3.70;;;;;;;;;;4330162;33;20136;-71
2021/04/08 08:17:41;;;;;;;10.00;4.30;;;;;;;;;;4324681;33;20236;-69
2021/04/08 08:20:06;;;;;;;9.53;3.50;;;;;;;;;;4321710;33;20136;-68
2021/04/08 08:22:36;;;;;;;4.67;2.90;;;;;;;;;;4330893;33;20218;-71
2021/04/08 08:25:01;;;;;;;11.23;2.80;;;;;;;;;;4329974;33;20136;-71
2021/04/08 08:27:39;;;;;;;8.17;3.50;;;;;;;;;;4330874;33;20268;-71
2021/04/08 08:30:06;;;;;;;6.57;3.57;;;;;;;;;;4330429;33;20140;-69
2021/04/08 08:32:31;;;;;;;4.70;2.83;;;;;;;;;;4327686;33;20223;-68
2021/04/08 08:34:56;;;;;;;9.03;3.70;;;;;;;;;;4329959;33;20513;-68
2021/04/08 08:37:22;;;;;;;6.00;3.27;;;;;;;;;;4329817;33;20147;-70
2021/04/08 08:39:48;;;;;;;4.90;3.07;;;;;;;;;;4329304;33;20141;-69
2021/04/08 08:42:18;;;;;;;7.73;3.20;;;;;;;;;;4327381;33;20140;-68
2021/04/08 08:44:43;;;;;;;5.93;3.23;;;;;;;;;;4317112;33;20192;-68
2021/04/08 08:47:27;;;;;;;7.50;3.33;;;;;;;;;;4314795;33;20512;-72
2021/04/08 08:49:56;;;;;;;10.23;3.50;;;;;;;;;;4317131;33;20195;-68
2021/04/08 08:52:32;;;;;;;6.43;3.77;;;;;;;;;;4325038;33;20512;-69
2021/04/08 08:54:57;;;;;;;6.77;3.03;;;;;;;;;;4329133;33;20182;-73
2021/04/08 08:57:24;;;;;;;9.77;3.80;;;;;;;;;;4329324;33;20215;-71
2021/04/08 08:59:50;;;;;;;6.73;3.80;;;;;;;;;;4328525;33;20191;-72
2021/04/08 09:02:16;;;;;;;6.37;3.83;;;;;;;;;;4329539;33;20689;-71
2021/04/08 09:04:41;;;;;;;9.90;3.83;;;;;;;;;;4330235;33;20128;-70
2021/04/08 09:07:08;;;;;;;6.30;3.80;;;;;;;;;;4329909;33;20147;-68
2021/04/08 09:09:36;;;;;;;10.20;4.33;;;;;;;;;;4328450;33;20152;-67
2021/04/08 09:12:04;;;;;;;6.87;3.60;;;;;;;;;;4330203;33;20137;-70
2021/04/08 09:14:31;;;;;;;7.43;3.90;;;;;;;;;;4329534;33;20201;-72
2021/04/08 09:16:56;;;;;;;8.20;4.20;;;;;;;;;;4329679;33;20161;-71
2021/04/08 09:19:24;;;;;;;7.73;3.60;;;;;;;;;;4329887;33;20132;-72
2021/04/08 09:21:50;;;;;;;8.47;4.30;;;;;;;;;;4330241;33;20168;-72
2021/04/08 09:24:20;;;;;;;7.73;4.60;;;;;;;;;;4329998;33;20132;-73
2021/04/08 09:26:48;;;;;;;6.97;4.40;;;;;;;;;;4328687;33;20159;-68
2021/04/08 09:29:42;;;;;;;5.90;4.00;;;;;;;;;;4329784;33;20148;-72
2021/04/08 09:32:22;;;;;;;9.60;4.63;;;;;;;;;;4328262;33;20152;-74
2021/04/08 09:35:03;;;;;;;10.17;4.70;;;;;;;;;;4328568;33;20151;-72
2021/04/08 09:37:49;;;;;;;12.27;5.20;;;;;;;;;;4328474;33;20210;-71
2021/04/08 09:43:09;;;;;;;10.23;4.53;;;;;;;;;;4329404;33;20476;-72
2021/04/08 09:45:51;;;;;;;9.70;5.33;;;;;;;;;;4329232;33;20484;-69
2021/04/08 09:48:24;;;;;;;7.90;4.93;;;;;;;;;;4329516;33;20131;-70
2021/04/08 09:51:01;;;;;;;10.73;5.10;;;;;;;;;;4327862;33;20188;-73
2021/04/08 09:53:47;;;;;;;9.73;5.30;;;;;;;;;;4327560;33;20194;-69
2021/04/08 09:56:12;;;;;;;8.77;4.53;;;;;;;;;;4329428;33;20174;-69
2021/04/08 09:58:37;;;;;;;10.13;5.60;;;;;;;;;;4324965;33;20250;-71
2021/04/08 10:01:05;;;;;;;6.43;4.37;;;;;;;;;;4326664;33;20137;-72
2021/04/08 10:03:33;;;;;;;11.27;5.33;;;;;;;;;;4328416;33;20160;-72
2021/04/08 10:05:59;;;;;;;9.13;5.17;;;;;;;;;;4329430;33;20215;-72
2021/04/08 10:08:25;;;;;;;6.40;5.00;;;;;;;;;;4327468;33;20159;-70
2021/04/08 10:10:51;;;;;;;9.30;4.67;;;;;;;;;;4329575;33;20136;-71
2021/04/08 10:13:20;;;;;;;11.87;5.43;;;;;;;;;;4328019;33;20163;-73
2021/04/08 10:15:46;;;;;;;8.73;5.20;;;;;;;;;;4329073;33;20166;-70
2021/04/08 10:18:22;;;;;;;9.00;4.70;;;;;;;;;;4329218;33;20215;-70
2021/04/08 10:20:48;;;;;;;9.70;4.60;;;;;;;;;;4325067;33;20464;-74
2021/04/08 10:23:14;;;;;;;8.53;5.40;;;;;;;;;;4314884;33;20152;-73
2021/04/08 10:25:39;;;;;;;11.33;6.13;;;;;;;;;;4320344;33;20343;-71
2021/04/08 10:28:05;;;;;;;9.57;6.40;;;;;;;;;;4329683;33;20135;-72
2021/04/08 10:30:40;;;;;;;9.60;6.40;;;;;;;;;;4328332;33;20483;-74
2021/04/08 10:33:18;;;;;;;10.67;6.13;;;;;;;;;;4331341;33;20429;-71
2021/04/08 10:35:44;;;;;;;11.63;6.30;;;;;;;;;;4331060;33;20135;-71
2021/04/08 10:38:10;;;;;;;11.87;5.80;;;;;;;;;;4331017;33;20182;-71
2021/04/08 10:40:36;;;;;;;11.60;5.77;;;;;;;;;;4331674;33;20223;-71
2021/04/08 10:43:11;;;;;;;12.97;6.03;;;;;;;;;;4331375;33;20438;-69
2021/04/08 10:45:53;;;;;;;10.37;5.57;;;;;;;;;;4331570;33;20128;-72
2021/04/08 10:48:19;;;;;;;7.17;4.03;;;;;;;;;;4331711;33;20166;-73
2021/04/08 10:50:44;;;;;;;11.87;5.30;;;;;;;;;;4332248;33;20136;-70
2021/04/08 10:53:25;;;;;;;;;;;;;;;;;;;;;
2021/04/08 10:55:51;;;;;;;8.40;4.93;;;;;;;;;;4331548;33;20143;-72
2021/04/08 10:58:24;;;;;;;8.93;5.70;;;;;;;;;;4330153;33;20182;-70
2021/04/08 11:00:50;;;;;;;12.70;5.57;;;;;;;;;;4330800;33;20210;-70
2021/04/08 11:03:18;;;;;;;8.17;4.93;;;;;;;;;;4330273;33;20571;-74
2021/04/08 11:05:43;;;;;;;8.33;5.10;;;;;;;;;;4329939;33;20182;-69
2021/04/08 11:08:10;;;;;;;11.07;4.77;;;;;;;;;;4331570;33;20187;-72
2021/04/08 11:10:35;;;;;;;7.00;4.20;;;;;;;;;;4330162;33;20163;-73
2021/04/08 11:13:01;;;;;;;9.43;4.93;;;;;;;;;;4331979;33;20174;-74
2021/04/08 11:15:28;;;;;;;6.93;4.50;;;;;;;;;;4331448;33;20223;-74
2021/04/08 11:18:16;;;;;;;9.60;4.73;;;;;;;;;;4318317;33;20171;-73
2021/04/08 11:21:01;;;;;;;9.10;4.07;;;;;;;;;;4331022;33;20213;-73
2021/04/08 11:23:37;;;;;;;6.50;4.23;;;;;;;;;;4330202;33;20171;-73
2021/04/08 11:26:24;;;;;;;6.17;4.40;;;;;;;;;;4330131;33;20173;-74
2021/04/08 11:28:57;;;;;;;6.07;4.23;;;;;;;;;;4331581;33;20171;-74
2021/04/08 11:31:23;;;;;;;6.53;4.03;;;;;;;;;;4330826;33;20641;-75
2021/04/08 11:33:57;;;;;;;10.63;5.40;;;;;;;;;;4331246;33;20132;-74
2021/04/08 11:36:23;;;;;;;9.27;5.47;;;;;;;;;;4327526;33;20222;-73
2021/04/08 11:38:48;;;;;;;15.60;10.27;;;;;;;;;;4305996;33;20159;-74
2021/04/08 11:41:22;;;;;;;7.70;5.27;;;;;;;;;;4330839;33;20167;-74
2021/04/08 11:43:47;;;;;;;8.07;5.60;;;;;;;;;;4330303;33;20144;-73
2021/04/08 11:46:32;;;;;;;7.55;4.80;;;;;;;;;;4329555;33;20577;-73
2021/04/08 11:48:58;;;;;;;9.25;5.25;;;;;;;;;;4328916;33;20197;-73
2021/04/08 11:51:29;;;;;;;7.85;5.40;;;;;;;;;;4329203;33;20206;-75
2021/04/08 11:54:06;;;;;;;9.13;4.70;;;;;;;;;;4329628;33;20182;-74
2021/04/08 11:56:31;;;;;;;6.32;4.72;;;;;;;;;;4329541;33;20187;-73
2021/04/08 11:59:06;;;;;;;6.70;4.28;;;;;;;;;;4329297;33;20206;-74
2021/04/08 12:01:51;;;;;;;7.72;4.75;;;;;;;;;;4329623;33;20190;-73
2021/04/08 12:04:17;;;;;;;7.28;4.35;;;;;;;;;;4330925;33;20595;-75
2021/04/08 12:06:44;;;;;;;5.43;3.70;;;;;;;;;;4329426;33;20194;-72
2021/04/08 12:09:10;;;;;;;7.40;5.03;;;;;;;;;;4328752;33;20656;-74
2021/04/08 12:11:52;;;;;;;6.97;4.47;;;;;;;;;;4329635;33;20275;-75
2021/04/08 12:14:17;;;;;;;8.00;4.55;;;;;;;;;;4329441;33;20295;-73
2021/04/08 12:16:42;;;;;;;6.62;3.85;;;;;;;;;;4325737;33;20164;-74
2021/04/08 12:19:08;;;;;;;6.87;3.53;;;;;;;;;;4315304;33;20178;-74
2021/04/08 12:21:33;;;;;;;7.37;4.05;;;;;;;;;;4313448;33;20553;-73
2021/04/08 12:24:06;;;;;;;7.68;4.25;;;;;;;;;;4327880;33;20207;-74
2021/04/08 12:26:35;;;;;;;8.07;4.55;;;;;;;;;;4329870;33;20194;-70
2021/04/08 12:29:01;;;;;;;7.40;3.50;;;;;;;;;;4328790;33;20474;-73
2021/04/08 12:31:26;;;;;;;6.75;3.95;;;;;;;;;;4341026;33;20175;-74
2021/04/08 12:33:51;;;;;;;5.05;3.30;;;;;;;;;;4340882;33;20174;-73
2021/04/08 12:36:17;;;;;;;8.52;3.55;;;;;;;;;;4328635;33;20250;-74
2021/04/08 12:38:42;;;;;;;6.50;4.05;;;;;;;;;;4329700;33;20249;-73
2021/04/08 12:41:08;;;;;;;5.45;3.42;;;;;;;;;;4329199;33;20166;-73
2021/04/08 12:43:34;;;;;;;5.95;3.62;;;;;;;;;;4330171;33;20151;-72
2021/04/08 12:45:59;;;;;;;6.22;3.55;;;;;;;;;;4329697;33;20214;-72
2021/04/08 12:48:25;;;;;;;6.05;4.32;;;;;;;;;;4316815;33;20159;-72
2021/04/08 12:50:50;;;;;;;10.82;4.40;;;;;;;;;;4328781;33;20164;-73
2021/04/08 12:53:19;;;;;;;6.25;4.70;;;;;;;;;;4328424;33;20176;-74
2021/04/08 12:55:44;;;;;;;8.63;5.20;;;;;;;;;;4327955;33;20152;-72
2021/04/08 12:58:10;;;;;;;10.13;5.50;;;;;;;;;;4328289;33;20628;-72
2021/04/08 13:00:39;;;;;;;8.68;5.20;;;;;;;;;;4328575;33;20179;-72
2021/04/08 13:03:09;;;;;;;9.02;5.22;;;;;;;;;;4329854;33;20158;-73
2021/04/08 13:05:34;;;;;;;7.80;4.70;;;;;;;;;;4329762;33;20137;-72
2021/04/08 13:07:59;;;;;;;7.95;4.25;;;;;;;;;;4316298;33;20207;-71
2021/04/08 13:10:25;;;;;;;6.35;4.72;;;;;;;;;;4328227;33;20148;-73
2021/04/08 13:12:59;;;;;;;7.87;4.97;;;;;;;;;;4329762;33;20140;-73
2021/04/08 13:15:25;;;;;;;8.27;5.37;;;;;;;;;;4316508;33;20160;-75
2021/04/08 13:17:51;;;;;;;7.75;4.80;;;;;;;;;;4328996;33;20181;-73
2021/04/08 13:20:18;;;;;;;10.30;4.35;;;;;;;;;;4328600;33;20152;-75
2021/04/08 13:22:43;;;;;;;6.20;4.03;;;;;;;;;;4314293;33;20227;-69
2021/04/08 13:25:09;;;;;;;5.85;4.30;;;;;;;;;;4315527;33;20144;-73
2021/04/08 13:27:35;;;;;;;6.05;3.80;;;;;;;;;;4340552;33;20155;-73
2021/04/08 13:30:00;;;;;;;4.97;3.78;;;;;;;;;;4316520;33;20151;-72
2021/04/08 13:32:25;;;;;;;7.28;4.87;;;;;;;;;;4329257;33;20128;-74
2021/04/08 13:34:51;;;;;;;9.05;4.15;;;;;;;;;;4316222;33;20160;-72
2021/04/08 13:37:18;;;;;;;5.10;4.25;;;;;;;;;;4329359;33;20190;-73
2021/04/08 13:39:44;;;;;;;6.62;3.92;;;;;;;;;;4328350;33;20635;-72
2021/04/08 13:42:09;;;;;;;5.70;4.07;;;;;;;;;;4330043;33;20160;-72
2021/04/08 13:44:42;;;;;;;6.35;4.20;;;;;;;;;;4328271;33;20178;-73
2021/04/08 13:47:07;;;;;;;6.95;4.57;;;;;;;;;;4330073;33;20135;-72
2021/04/08 13:49:41;;;;;;;7.43;4.50;;;;;;;;;;4330150;33;20472;-72
2021/04/08 13:52:07;;;;;;;6.47;4.50;;;;;;;;;;4328145;33;20573;-72
2021/04/08 13:54:36;;;;;;;5.57;4.25;;;;;;;;;;4329342;33;20136;-71
2021/04/08 13:57:01;;;;;;;6.32;4.60;;;;;;;;;;4329719;33;20166;-70
2021/04/08 13:59:26;;;;;;;8.40;4.68;;;;;;;;;;4329777;33;20132;-72
2021/04/08 14:02:04;;;;;;;7.20;4.43;;;;;;;;;;4329517;33;20145;-73
2021/04/08 14:04:29;;;;;;;6.45;4.40;;;;;;;;;;4329104;33;20353;-72
2021/04/08 14:06:55;;;;;;;5.55;3.60;;;;;;;;;;4329859;33;20558;-74
2021/04/08 14:09:20;;;;;;;8.85;4.45;;;;;;;;;;4331936;33;20580;-72
2021/04/08 14:11:51;;;;;;;7.40;4.68;;;;;;;;;;4332038;33;20133;-73
2021/04/08 14:14:16;;;;;;;7.60;4.50;;;;;;;;;;4331682;33;20191;-74
2021/04/08 14:16:42;;;;;;;9.40;4.35;;;;;;;;;;4331825;33;20485;-72
2021/04/08 14:19:07;;;;;;;8.75;4.70;;;;;;;;;;4332956;33;20136;-73
2021/04/08 14:21:45;;;;;;;4.97;3.72;;;;;;;;;;4332078;33;20136;-72
2021/04/08 14:24:17;;;;;;;6.28;4.10;;;;;;;;;;4332230;33;20526;-72
2021/04/08 14:26:43;;;;;;;5.18;4.05;;;;;;;;;;4332743;33;20182;-72
2021/04/08 14:29:08;;;;;;;6.15;3.95;;;;;;;;;;4330772;33;20509;-72
2021/04/08 14:31:36;;;;;;;6.25;3.70;;;;;;;;;;4331778;33;20159;-73
2021/04/08 14:34:03;;;;;;;6.28;3.30;;;;;;;;;;4329722;33;20490;-70
2021/04/08 14:36:29;;;;;;;6.05;4.15;;;;;;;;;;4331891;33;20136;-72
2021/04/08 14:38:54;;;;;;;5.72;3.47;;;;;;;;;;4331751;33;20159;-71
2021/04/08 14:41:19;;;;;;;8.93;3.40;;;;;;;;;;4331439;33;20202;-73
2021/04/08 14:43:44;;;;;;;6.68;3.60;;;;;;;;;;4331734;33;20132;-73
2021/04/08 14:46:10;;;;;;;7.05;4.25;;;;;;;;;;4331834;33;20182;-72
2021/04/08 14:48:35;;;;;;;5.97;3.62;;;;;;;;;;4331614;33;20489;-71